Time;durP1;ratioP1;P1;durP2;ratioP2;P2;SDS_P1;SDS_P2;PMS_P1;PMS_P2;Temp;Humidity;BMP_temperature;BMP_pressure;BME280_temperature;BME280_humidity;BME280_pressure;Samples;Min_cycle;Max_cycle;Signal;HPM_P1;HPM_P2
2023/10/27 00:02:47;;;;;;;7.00;3.93;;;5.90;99.90;;;;;;8328768;28;20181;-61
2023/10/27 00:06:48;;;;;;;5.87;3.97;;;6.00;99.90;;;;;;8341233;28;20198;-61
2023/10/27 00:10:48;;;;;;;5.07;3.70;;;6.10;99.90;;;;;;8325902;28;20197;-62
2023/10/27 00:14:49;;;;;;;7.40;4.53;;;6.20;99.90;;;;;;8320779;28;20201;-63
2023/10/27 00:18:50;;;;;;;17.17;8.00;;;6.40;99.90;;;;;;8324533;28;20286;-62
2023/10/27 00:22:51;;;;;;;17.10;8.67;;;6.40;99.90;;;;;;8320704;28;20189;-61
2023/10/27 00:26:51;;;;;;;12.17;6.90;;;6.50;99.90;;;;;;8321531;28;20193;-61
2023/10/27 00:30:52;;;;;;;8.83;5.03;;;6.50;99.90;;;;;;8327191;28;20185;-62
2023/10/27 00:34:53;;;;;;;7.93;4.93;;;6.50;99.90;;;;;;8323102;28;20494;-62
2023/10/27 00:38:54;;;;;;;47.17;18.97;;;6.60;99.90;;;;;;8320615;28;20283;-62
2023/10/27 00:42:57;;;;;;;78.93;30.97;;;6.70;99.90;;;;;;8322009;28;20221;-62
2023/10/27 00:46:58;;;;;;;54.70;21.63;;;6.80;99.90;;;;;;8338890;28;20189;-62
2023/10/27 00:51:05;;;;;;;35.50;14.57;;;6.80;99.90;;;;;;8322230;28;20304;-62
2023/10/27 00:55:07;;;;;;;18.27;9.23;;;6.90;99.90;;;;;;8319174;28;20229;-61
2023/10/27 00:59:08;;;;;;;12.23;5.63;;;6.90;99.90;;;;;;8317337;28;20214;-61
2023/10/27 01:03:09;;;;;;;5.97;4.57;;;7.00;99.90;;;;;;8321058;28;20194;-63
2023/10/27 01:07:09;;;;;;;7.17;4.30;;;7.10;99.90;;;;;;8328109;28;20559;-61
2023/10/27 01:11:10;;;;;;;5.00;3.70;;;7.10;99.90;;;;;;8319718;28;20182;-61
2023/10/27 01:15:11;;;;;;;5.50;3.67;;;7.10;99.90;;;;;;8318672;28;20178;-60
2023/10/27 01:19:12;;;;;;;9.63;5.40;;;7.10;99.90;;;;;;8322086;28;20210;-62
2023/10/27 01:23:13;;;;;;;8.47;4.93;;;7.20;99.90;;;;;;8326948;28;20243;-61
2023/10/27 01:27:13;;;;;;;6.97;4.07;;;7.20;99.90;;;;;;8319961;28;20193;-63
2023/10/27 01:31:15;;;;;;;4.20;3.80;;;7.30;99.90;;;;;;8321441;28;20186;-62
2023/10/27 01:35:16;;;;;;;5.20;3.87;;;7.30;99.90;;;;;;8317841;28;20193;-61
2023/10/27 01:39:17;;;;;;;4.90;3.70;;;7.30;99.90;;;;;;8319510;28;20237;-62
2023/10/27 01:43:18;;;;;;;4.67;3.77;;;7.30;99.90;;;;;;8326427;28;20216;-61
2023/10/27 01:47:18;;;;;;;6.80;4.60;;;7.30;99.90;;;;;;8324551;28;20502;-63
2023/10/27 01:51:19;;;;;;;9.83;6.73;;;7.30;99.90;;;;;;8319657;28;20178;-60
2023/10/27 01:55:20;;;;;;;9.70;6.40;;;7.40;99.90;;;;;;8319408;28;20605;-61
2023/10/27 01:59:21;;;;;;;8.03;5.07;;;7.40;99.90;;;;;;8325894;28;20300;-62
2023/10/27 02:03:21;;;;;;;6.13;4.47;;;7.40;99.90;;;;;;8324380;28;20182;-62
2023/10/27 02:07:24;;;;;;;6.97;4.47;;;7.40;99.90;;;;;;8322157;28;20269;-61
2023/10/27 02:11:25;;;;;;;6.73;4.10;;;7.40;99.90;;;;;;8324725;28;20292;-63
2023/10/27 02:15:26;;;;;;;11.37;6.60;;;7.50;99.90;;;;;;8327494;28;20284;-61
2023/10/27 02:19:27;;;;;;;7.97;5.70;;;7.50;99.90;;;;;;8324144;28;20512;-60
2023/10/27 02:23:27;;;;;;;12.63;7.93;;;7.50;99.90;;;;;;8326819;28;20205;-62
2023/10/27 02:27:29;;;;;;;12.03;7.87;;;7.40;99.90;;;;;;8332983;28;20185;-60
2023/10/27 02:31:30;;;;;;;32.07;19.57;;;7.40;99.90;;;;;;8328195;28;20217;-62
2023/10/27 02:35:30;;;;;;;30.90;17.97;;;7.40;99.90;;;;;;8342719;28;20186;-62
2023/10/27 02:39:32;;;;;;;18.53;12.13;;;7.30;99.90;;;;;;8330305;28;20238;-61
2023/10/27 02:43:33;;;;;;;11.87;7.80;;;7.20;99.90;;;;;;8331061;28;20182;-62
2023/10/27 02:47:34;;;;;;;9.60;6.37;;;7.20;99.90;;;;;;8327122;28;20210;-62
2023/10/27 02:51:35;;;;;;;7.67;5.60;;;7.10;99.90;;;;;;8324277;28;20182;-63
2023/10/27 02:55:37;;;;;;;36.30;22.63;;;7.10;99.90;;;;;;8318112;28;20198;-62
2023/10/27 02:59:38;;;;;;;19.13;12.40;;;7.10;99.90;;;;;;8325138;28;20206;-62
2023/10/27 03:03:38;;;;;;;13.47;10.27;;;7.10;99.90;;;;;;8330439;28;20178;-63
2023/10/27 03:07:39;;;;;;;9.33;6.50;;;7.10;99.90;;;;;;8340411;28;20297;-62
2023/10/27 03:11:40;;;;;;;7.43;5.27;;;7.00;99.90;;;;;;8327226;28;20225;-63
2023/10/27 03:15:41;;;;;;;6.00;4.57;;;6.90;99.90;;;;;;8325973;28;20503;-62
2023/10/27 03:19:43;;;;;;;36.40;19.37;;;6.70;99.90;;;;;;8334643;28;20206;-62
2023/10/27 03:23:43;;;;;;;30.77;16.53;;;6.70;99.90;;;;;;8323092;28;20198;-62
2023/10/27 03:27:44;;;;;;;22.97;13.73;;;6.60;99.90;;;;;;8323199;28;20202;-62
2023/10/27 03:31:45;;;;;;;17.73;10.40;;;6.60;99.90;;;;;;8335771;28;20194;-61
2023/10/27 03:35:46;;;;;;;11.60;8.10;;;6.60;99.90;;;;;;8320558;28;20316;-62
2023/10/27 03:39:47;;;;;;;11.23;7.70;;;6.60;99.90;;;;;;8330122;28;20275;-63
2023/10/27 03:43:49;;;;;;;9.77;7.53;;;6.60;99.90;;;;;;8321896;28;20193;-62
2023/10/27 03:47:49;;;;;;;9.37;7.00;;;6.60;99.90;;;;;;8320661;28;20194;-63
2023/10/27 03:51:50;;;;;;;7.20;5.70;;;6.60;99.90;;;;;;8319996;28;20190;-61
2023/10/27 03:55:52;;;;;;;33.90;20.07;;;6.60;99.90;;;;;;8323881;28;20217;-62
2023/10/27 03:59:53;;;;;;;44.13;26.27;;;6.60;99.90;;;;;;8321461;28;20377;-62
2023/10/27 04:03:54;;;;;;;27.03;16.77;;;6.60;99.90;;;;;;8322305;28;20347;-61
2023/10/27 04:07:55;;;;;;;20.73;13.87;;;6.60;99.90;;;;;;8323096;28;20181;-62
2023/10/27 04:11:56;;;;;;;20.23;12.93;;;6.60;99.90;;;;;;8326285;28;20196;-62
2023/10/27 04:15:57;;;;;;;13.83;10.23;;;6.60;99.90;;;;;;8337071;28;20214;-62
2023/10/27 04:19:57;;;;;;;13.27;8.67;;;6.50;99.90;;;;;;8322688;28;20206;-62
2023/10/27 04:23:58;;;;;;;8.83;6.70;;;6.50;99.90;;;;;;8323193;28;20214;-61
2023/10/27 04:28:00;;;;;;;8.87;6.40;;;6.40;99.90;;;;;;8320641;28;20277;-62
2023/10/27 04:32:04;;;;;;;9.03;5.90;;;6.40;99.90;;;;;;8318788;28;20213;-61
2023/10/27 04:36:05;;;;;;;10.20;6.20;;;6.30;99.90;;;;;;8320110;28;20181;-62
2023/10/27 04:40:10;;;;;;;6.53;5.37;;;6.20;99.90;;;;;;8316318;28;20240;-62
2023/10/27 04:44:10;;;;;;;9.10;5.93;;;6.20;99.90;;;;;;8327132;28;20269;-62
2023/10/27 04:48:11;;;;;;;11.10;7.47;;;6.20;99.90;;;;;;8324085;28;20372;-62
2023/10/27 04:52:12;;;;;;;17.00;11.03;;;6.30;99.90;;;;;;8328627;28;20182;-62
2023/10/27 04:56:13;;;;;;;19.47;11.63;;;6.40;99.90;;;;;;8321383;28;20189;-68
2023/10/27 05:00:14;;;;;;;37.00;22.13;;;6.40;99.90;;;;;;8336184;28;20217;-67
2023/10/27 05:04:15;;;;;;;46.13;24.47;;;6.50;99.90;;;;;;8322350;28;20186;-66
2023/10/27 05:08:16;;;;;;;34.67;20.87;;;6.50;99.90;;;;;;8328716;28;20206;-68
2023/10/27 05:12:17;;;;;;;29.07;16.33;;;6.50;99.90;;;;;;8322601;28;20244;-65
2023/10/27 05:16:18;;;;;;;20.80;11.80;;;6.60;99.90;;;;;;8322249;28;20190;-69
2023/10/27 05:20:19;;;;;;;24.07;16.40;;;6.60;99.90;;;;;;8327723;28;20454;-68
2023/10/27 05:24:21;;;;;;;32.37;21.53;;;6.60;99.90;;;;;;8325776;28;20190;-66
2023/10/27 05:28:23;;;;;;;52.67;28.53;;;6.70;99.90;;;;;;8319277;28;20174;-67
2023/10/27 05:32:24;;;;;;;59.50;31.37;;;6.70;99.90;;;;;;8323709;28;20187;-68
2023/10/27 05:36:25;;;;;;;55.63;30.20;;;6.70;99.90;;;;;;8320000;28;20194;-68
2023/10/27 05:40:31;;;;;;;52.60;32.33;;;6.70;99.90;;;;;;8328135;28;20214;-67
2023/10/27 05:44:32;;;;;;;43.77;28.23;;;6.80;99.90;;;;;;8328830;28;20185;-66
2023/10/27 05:48:33;;;;;;;38.13;25.63;;;6.80;99.90;;;;;;8331754;28;20187;-69
2023/10/27 05:52:34;;;;;;;37.47;23.83;;;6.80;99.90;;;;;;8332151;28;20182;-66
2023/10/27 05:56:34;;;;;;;33.43;20.90;;;6.90;99.90;;;;;;8326462;28;20201;-67
2023/10/27 06:00:35;;;;;;;24.40;17.37;;;6.90;99.90;;;;;;8326031;28;20229;-68
2023/10/27 06:04:36;;;;;;;40.77;26.47;;;7.00;99.90;;;;;;8324451;28;20183;-66
2023/10/27 06:08:42;;;;;;;36.53;23.07;;;7.10;99.90;;;;;;8330881;28;20186;-66
2023/10/27 06:12:43;;;;;;;28.17;20.10;;;7.10;99.90;;;;;;8329472;28;20182;-67
2023/10/27 06:16:45;;;;;;;25.20;17.63;;;7.20;99.90;;;;;;8323050;28;20187;-66
2023/10/27 06:20:48;;;;;;;20.13;15.80;;;7.20;99.90;;;;;;8325622;28;20225;-66
2023/10/27 06:24:49;;;;;;;17.33;14.10;;;7.20;99.90;;;;;;8323756;28;20297;-67
2023/10/27 06:28:50;;;;;;;16.87;12.83;;;7.30;99.90;;;;;;8322411;28;20178;-66
2023/10/27 06:32:50;;;;;;;13.00;11.50;;;7.40;99.90;;;;;;8325107;28;20280;-67
2023/10/27 06:36:51;;;;;;;14.27;11.07;;;7.50;99.90;;;;;;8320594;28;20192;-67
2023/10/27 06:40:52;;;;;;;16.93;12.27;;;7.50;99.90;;;;;;8323975;28;20214;-66
2023/10/27 06:44:53;;;;;;;17.70;14.33;;;7.60;99.90;;;;;;8326326;28;20195;-66
2023/10/27 06:48:55;;;;;;;15.53;12.00;;;7.50;99.90;;;;;;8328524;28;20182;-66
2023/10/27 06:52:56;;;;;;;16.70;13.93;;;7.50;99.90;;;;;;8324882;28;20226;-66
2023/10/27 06:56:57;;;;;;;14.63;11.90;;;7.70;99.90;;;;;;8329946;28;20200;-66
2023/10/27 07:01:05;;;;;;;20.60;15.13;;;7.80;99.90;;;;;;8329535;28;20225;-66
2023/10/27 07:05:08;;;;;;;20.27;14.23;;;7.90;99.90;;;;;;8324332;28;20194;-66
2023/10/27 07:09:09;;;;;;;15.10;12.00;;;8.10;99.90;;;;;;8324547;28;20186;-66
2023/10/27 07:13:10;;;;;;;14.17;10.70;;;8.20;99.90;;;;;;8328581;28;20286;-66
2023/10/27 07:17:11;;;;;;;14.10;11.03;;;8.30;99.90;;;;;;8338155;28;20220;-66
2023/10/27 07:21:12;;;;;;;16.60;11.87;;;8.40;99.90;;;;;;8323278;28;20210;-66
2023/10/27 07:25:13;;;;;;;16.33;12.17;;;8.60;99.90;;;;;;8329879;28;20195;-65
2023/10/27 07:29:15;;;;;;;13.63;11.57;;;8.70;99.90;;;;;;8345662;28;20190;-65
2023/10/27 07:33:15;;;;;;;14.57;12.13;;;8.80;99.90;;;;;;8327084;28;20193;-66
2023/10/27 07:37:20;;;;;;;22.43;15.13;;;8.90;99.90;;;;;;8327474;28;20215;-66
2023/10/27 07:41:20;;;;;;;17.43;13.20;;;9.00;99.90;;;;;;8325044;28;20310;-66
2023/10/27 07:45:21;;;;;;;16.53;10.37;;;9.10;99.90;;;;;;8320314;28;20183;-65
2023/10/27 07:49:23;;;;;;;12.77;9.90;;;9.20;99.90;;;;;;8322423;28;20298;-64
2023/10/27 07:53:27;;;;;;;20.23;14.87;;;9.30;99.90;;;;;;8323534;28;20200;-67
2023/10/27 07:57:28;;;;;;;36.60;20.73;;;9.40;99.90;;;;;;8321800;28;20293;-66
2023/10/27 08:01:28;;;;;;;42.40;21.17;;;9.40;99.90;;;;;;8319576;28;20213;-64
2023/10/27 08:05:30;;;;;;;16.37;12.50;;;9.50;99.90;;;;;;8322302;28;20537;-66
2023/10/27 08:09:31;;;;;;;20.77;14.87;;;9.60;99.90;;;;;;8328547;28;20217;-65
2023/10/27 08:13:32;;;;;;;10.43;8.33;;;9.60;99.90;;;;;;8323662;28;20190;-65
2023/10/27 08:17:34;;;;;;;212.20;74.67;;;9.70;99.90;;;;;;8322243;28;20202;-66
2023/10/27 08:21:35;;;;;;;12.20;9.43;;;9.70;99.90;;;;;;8325704;28;20728;-66
2023/10/27 08:25:36;;;;;;;51.67;26.60;;;9.70;99.90;;;;;;8321890;28;20196;-66
2023/10/27 08:29:37;;;;;;;26.53;14.63;;;9.80;99.90;;;;;;8321676;28;20355;-67
2023/10/27 08:33:39;;;;;;;20.03;11.97;;;9.80;99.90;;;;;;8321729;28;20200;-62
2023/10/27 08:37:40;;;;;;;57.20;24.40;;;9.90;99.90;;;;;;8319210;28;20186;-63
2023/10/27 08:41:41;;;;;;;22.73;15.13;;;10.00;99.90;;;;;;8319701;28;20224;-63
2023/10/27 08:45:43;;;;;;;16.27;13.67;;;10.00;99.90;;;;;;8321022;28;20349;-63
2023/10/27 08:49:46;;;;;;;30.27;17.40;;;10.10;99.90;;;;;;8321569;28;20271;-62
2023/10/27 08:53:47;;;;;;;36.63;22.47;;;10.20;99.90;;;;;;8323102;28;20279;-63
2023/10/27 08:57:48;;;;;;;14.10;11.27;;;10.20;99.90;;;;;;8334018;28;20544;-59
2023/10/27 09:01:49;;;;;;;11.10;7.70;;;10.30;99.90;;;;;;8322385;28;20220;-60
2023/10/27 09:05:49;;;;;;;11.43;8.07;;;10.40;99.90;;;;;;8319349;28;20185;-61
2023/10/27 09:09:50;;;;;;;14.07;8.93;;;10.40;99.90;;;;;;8318084;28;20193;-61
2023/10/27 09:13:51;;;;;;;13.07;8.50;;;10.40;99.90;;;;;;8322513;28;20194;-61
2023/10/27 09:17:56;;;;;;;13.17;9.83;;;10.40;99.90;;;;;;8320667;28;20192;-62
2023/10/27 09:21:56;;;;;;;12.90;10.00;;;10.40;99.90;;;;;;8319052;28;20232;-60
2023/10/27 09:25:57;;;;;;;10.37;8.47;;;10.40;99.90;;;;;;8319856;28;20175;-61
2023/10/27 09:29:58;;;;;;;10.97;9.30;;;10.40;99.90;;;;;;8323534;28;20267;-62
2023/10/27 09:34:17;;;;;;;11.50;8.37;;;10.50;99.90;;;;;;8321261;28;20192;-64
2023/10/27 09:38:18;;;;;;;13.40;8.57;;;10.60;99.90;;;;;;8335125;28;20284;-66
2023/10/27 09:42:19;;;;;;;10.03;8.10;;;10.60;99.90;;;;;;8320649;28;20269;-66
2023/10/27 09:46:20;;;;;;;10.47;8.20;;;10.70;99.90;;;;;;8320015;28;20475;-65
2023/10/27 09:50:25;;;;;;;8.70;7.63;;;10.70;99.90;;;;;;8316295;28;20191;-66
2023/10/27 09:54:33;;;;;;;9.30;7.83;;;10.80;99.90;;;;;;8318467;28;20273;-65
2023/10/27 09:58:35;;;;;;;10.53;7.83;;;10.90;99.90;;;;;;8324779;28;20191;-65
2023/10/27 10:02:37;;;;;;;9.33;8.30;;;10.90;99.90;;;;;;8318727;28;20375;-66
2023/10/27 10:06:38;;;;;;;28.40;15.17;;;11.00;99.90;;;;;;8326892;28;20190;-66
2023/10/27 10:10:39;;;;;;;12.60;8.73;;;11.10;99.90;;;;;;8319578;28;20197;-65
2023/10/27 10:14:39;;;;;;;15.10;10.17;;;11.10;99.90;;;;;;8319375;28;20261;-66
2023/10/27 10:18:50;;;;;;;18.20;12.27;;;11.20;99.90;;;;;;8329972;28;20205;-67
2023/10/27 10:22:53;;;;;;;18.20;12.73;;;11.40;99.90;;;;;;8323432;28;20645;-67
2023/10/27 10:27:15;;;;;;;14.07;10.40;;;11.50;99.90;;;;;;8318683;28;20239;-65
2023/10/27 10:31:21;;;;;;;13.03;11.20;;;11.50;99.90;;;;;;8331552;28;20193;-66
2023/10/27 10:35:23;;;;;;;22.37;14.67;;;11.50;99.90;;;;;;8326226;28;20183;-68
2023/10/27 10:39:24;;;;;;;12.87;9.83;;;11.50;99.90;;;;;;8330895;28;20215;-67
2023/10/27 10:43:29;;;;;;;24.10;17.33;;;11.50;99.90;;;;;;8325375;28;20184;-63
2023/10/27 10:47:29;;;;;;;16.70;12.23;;;11.50;99.90;;;;;;8326957;28;20186;-62
2023/10/27 10:51:36;;;;;;;12.47;9.47;;;11.50;99.90;;;;;;8322160;28;20263;-63
2023/10/27 10:55:37;;;;;;;11.80;9.17;;;11.50;99.90;;;;;;8325223;28;20276;-66
2023/10/27 10:59:38;;;;;;;13.83;9.77;;;11.50;99.90;;;;;;8336559;28;20252;-67
2023/10/27 11:03:39;;;;;;;14.87;10.40;;;11.60;99.90;;;;;;8323338;28;20505;-65
2023/10/27 11:07:40;;;;;;;16.07;11.07;;;11.60;99.90;;;;;;8323704;28;20183;-65
2023/10/27 11:11:41;;;;;;;19.67;12.90;;;11.60;99.90;;;;;;8324585;28;20194;-65
2023/10/27 11:15:49;;;;;;;13.33;10.60;;;11.60;99.90;;;;;;8320218;28;20217;-66
2023/10/27 11:19:54;;;;;;;11.50;9.47;;;11.60;99.90;;;;;;8320251;28;20209;-67
2023/10/27 11:23:55;;;;;;;14.93;10.27;;;11.70;99.90;;;;;;8329736;28;20220;-66
2023/10/27 11:27:56;;;;;;;16.03;10.93;;;11.60;99.90;;;;;;8340683;28;20194;-65
2023/10/27 11:32:13;;;;;;;13.40;10.70;;;11.50;99.90;;;;;;8321157;28;20241;-66
2023/10/27 11:36:14;;;;;;;18.87;12.83;;;11.40;99.90;;;;;;8322106;28;20212;-67
2023/10/27 11:40:15;;;;;;;13.47;11.23;;;11.20;99.90;;;;;;8322432;28;20209;-66
2023/10/27 11:44:19;;;;;;;16.53;12.57;;;11.10;99.90;;;;;;8330468;28;20187;-66
2023/10/27 11:48:20;;;;;;;13.37;11.50;;;11.00;99.90;;;;;;8322029;28;20404;-66
2023/10/27 11:52:21;;;;;;;15.10;11.73;;;10.90;99.90;;;;;;8319870;28;20198;-67
2023/10/27 11:56:25;;;;;;;15.30;12.10;;;10.80;99.90;;;;;;8316179;28;20197;-66
2023/10/27 12:00:26;;;;;;;14.60;12.17;;;10.80;99.90;;;;;;8323399;28;20217;-67
2023/10/27 12:04:28;;;;;;;18.90;13.60;;;10.80;99.90;;;;;;8323915;28;20325;-63
2023/10/27 12:08:28;;;;;;;23.97;16.10;;;10.80;99.90;;;;;;8319671;28;20190;-63
2023/10/27 12:12:29;;;;;;;19.77;15.33;;;10.80;99.90;;;;;;8330083;28;20201;-64
2023/10/27 12:16:30;;;;;;;21.40;14.90;;;10.80;99.90;;;;;;8325060;28;20182;-66
2023/10/27 12:20:31;;;;;;;25.03;18.93;;;10.90;99.90;;;;;;8320654;28;20289;-69
2023/10/27 12:24:33;;;;;;;19.77;17.43;;;10.90;99.90;;;;;;8324081;28;20186;-65
2023/10/27 12:28:34;;;;;;;16.73;14.17;;;11.00;99.90;;;;;;8327331;28;20229;-65
2023/10/27 12:32:35;;;;;;;21.00;14.90;;;11.00;99.90;;;;;;8327528;28;20196;-66
2023/10/27 12:36:36;;;;;;;20.60;15.00;;;11.00;99.90;;;;;;8331960;28;20283;-66
2023/10/27 12:40:38;;;;;;;25.93;17.10;;;11.10;99.90;;;;;;8330708;28;20218;-65
2023/10/27 12:44:39;;;;;;;21.13;16.70;;;11.10;99.90;;;;;;8331501;28;20283;-68
2023/10/27 12:48:40;;;;;;;27.03;18.97;;;11.00;99.90;;;;;;8324561;28;20514;-66
2023/10/27 12:52:41;;;;;;;34.27;20.93;;;10.90;99.90;;;;;;8322848;28;20196;-66
2023/10/27 12:56:42;;;;;;;23.80;17.63;;;10.90;99.90;;;;;;8330503;28;20215;-66
2023/10/27 13:00:45;;;;;;;26.27;18.67;;;10.80;99.90;;;;;;8324687;28;20214;-65
2023/10/27 13:04:46;;;;;;;23.87;17.90;;;10.70;99.90;;;;;;8327933;28;20265;-65
2023/10/27 13:08:47;;;;;;;28.27;21.07;;;10.60;99.90;;;;;;8325396;28;20243;-66
2023/10/27 13:12:49;;;;;;;26.93;19.70;;;10.60;99.90;;;;;;8328012;28;21321;-66
2023/10/27 13:16:49;;;;;;;30.90;22.13;;;10.50;99.90;;;;;;8327151;28;20296;-67
2023/10/27 13:20:50;;;;;;;28.50;21.37;;;10.50;99.90;;;;;;8333933;28;20205;-66
2023/10/27 13:24:55;;;;;;;26.03;19.83;;;10.40;99.90;;;;;;8327375;28;20185;-66
2023/10/27 13:28:57;;;;;;;30.50;21.10;;;10.50;99.90;;;;;;8325195;28;20191;-67
2023/10/27 13:32:59;;;;;;;44.30;31.80;;;10.40;99.90;;;;;;8321045;28;20186;-66
2023/10/27 13:37:02;;;;;;;58.43;45.40;;;10.40;99.90;;;;;;8329008;28;20182;-68
2023/10/27 13:41:03;;;;;;;49.20;38.47;;;10.40;99.90;;;;;;8326157;28;20578;-66
2023/10/27 13:45:05;;;;;;;73.90;61.10;;;10.40;99.90;;;;;;8327535;28;20276;-66
2023/10/27 13:49:11;;;;;;;35.70;25.90;;;10.40;99.90;;;;;;8326002;28;20188;-68
2023/10/27 13:53:11;;;;;;;31.00;20.90;;;10.30;99.90;;;;;;8327550;28;20188;-68
2023/10/27 13:57:12;;;;;;;32.50;22.53;;;10.30;99.90;;;;;;8340151;28;20236;-68
2023/10/27 14:01:14;;;;;;;52.80;29.10;;;10.20;99.90;;;;;;8325302;28;20229;-68
2023/10/27 14:05:15;;;;;;;43.07;24.97;;;10.20;99.90;;;;;;8329121;28;20308;-68
2023/10/27 14:09:16;;;;;;;45.63;29.50;;;10.20;99.90;;;;;;8334199;28;20247;-67
2023/10/27 14:13:17;;;;;;;52.90;31.07;;;10.10;99.90;;;;;;8330974;28;20239;-68
2023/10/27 14:17:17;;;;;;;41.50;26.50;;;10.10;99.90;;;;;;8336428;28;20178;-68
2023/10/27 14:21:18;;;;;;;41.97;26.27;;;10.10;99.90;;;;;;8336886;28;20212;-68
2023/10/27 14:25:19;;;;;;;40.43;25.43;;;10.10;99.90;;;;;;8333416;28;20187;-68
2023/10/27 14:29:21;;;;;;;35.80;22.73;;;10.10;99.90;;;;;;8330148;28;20333;-68
2023/10/27 14:33:22;;;;;;;54.90;30.60;;;10.10;99.90;;;;;;8333388;28;20247;-68
2023/10/27 14:37:23;;;;;;;36.97;24.47;;;10.10;99.90;;;;;;8333505;28;20186;-68
2023/10/27 14:41:27;;;;;;;40.37;26.40;;;10.10;99.90;;;;;;8329430;28;20211;-68
2023/10/27 14:45:28;;;;;;;35.97;25.13;;;10.00;99.90;;;;;;8331389;28;20191;-69
2023/10/27 14:49:30;;;;;;;27.17;20.33;;;10.00;99.90;;;;;;8332076;28;20191;-69
2023/10/27 14:53:31;;;;;;;32.60;21.17;;;10.00;99.90;;;;;;8335824;28;20602;-68
2023/10/27 14:57:36;;;;;;;24.63;17.27;;;10.00;99.90;;;;;;8331593;28;20205;-68
2023/10/27 15:01:37;;;;;;;22.07;15.30;;;10.00;99.90;;;;;;8327690;28;20256;-69
2023/10/27 15:05:39;;;;;;;15.63;13.33;;;10.00;99.90;;;;;;8330281;28;20193;-68
2023/10/27 15:09:40;;;;;;;18.70;15.90;;;10.00;99.90;;;;;;8327171;28;20198;-67
2023/10/27 15:13:41;;;;;;;17.73;14.47;;;10.00;99.90;;;;;;8336945;28;20232;-67
2023/10/27 15:17:42;;;;;;;17.53;14.23;;;10.00;99.90;;;;;;8336074;28;20267;-68
2023/10/27 15:21:44;;;;;;;14.87;11.83;;;10.00;99.90;;;;;;8336246;28;20220;-68
2023/10/27 15:25:47;;;;;;;10.50;9.40;;;9.90;99.90;;;;;;8331546;28;20185;-67
2023/10/27 15:29:47;;;;;;;8.87;7.87;;;9.90;99.90;;;;;;8330773;28;20217;-66
2023/10/27 15:33:48;;;;;;;8.50;7.57;;;9.90;99.90;;;;;;8327238;28;20197;-67
2023/10/27 15:37:49;;;;;;;7.60;6.80;;;9.90;99.90;;;;;;8330758;28;20185;-67
2023/10/27 15:41:56;;;;;;;7.90;6.73;;;9.90;99.90;;;;;;8330198;28;20217;-67
2023/10/27 15:46:01;;;;;;;8.17;7.00;;;9.80;99.90;;;;;;8330668;28;20182;-67
2023/10/27 15:50:02;;;;;;;8.07;6.70;;;9.80;99.90;;;;;;8330076;28;20236;-66
2023/10/27 15:54:03;;;;;;;7.20;6.43;;;9.80;99.90;;;;;;8329073;28;20220;-66
2023/10/27 15:58:07;;;;;;;8.87;7.37;;;9.70;99.90;;;;;;8329634;28;20271;-65
2023/10/27 16:02:09;;;;;;;9.63;8.63;;;9.70;99.90;;;;;;8330918;28;20205;-65
2023/10/27 16:06:16;;;;;;;11.50;8.97;;;9.70;99.90;;;;;;8333625;28;20190;-62
2023/10/27 16:10:18;;;;;;;9.37;8.13;;;9.60;99.90;;;;;;8324650;28;20179;-61
2023/10/27 16:14:19;;;;;;;9.97;8.53;;;9.50;99.90;;;;;;8327102;28;20196;-59
2023/10/27 16:18:23;;;;;;;9.93;8.60;;;9.50;99.90;;;;;;8324114;28;20188;-59
2023/10/27 16:22:24;;;;;;;9.20;7.97;;;9.50;99.90;;;;;;8344581;28;20205;-60
2023/10/27 16:26:25;;;;;;;9.77;7.77;;;9.50;99.90;;;;;;8326511;28;20431;-62
2023/10/27 16:30:27;;;;;;;11.43;8.73;;;9.40;99.90;;;;;;8333175;28;20186;-60
2023/10/27 16:34:28;;;;;;;10.80;8.77;;;9.40;99.90;;;;;;8325038;28;20189;-60
2023/10/27 16:38:29;;;;;;;12.83;9.37;;;9.40;99.90;;;;;;8330019;28;20225;-60
2023/10/27 16:42:29;;;;;;;11.57;9.13;;;9.40;99.90;;;;;;8334374;28;20203;-61
2023/10/27 16:46:31;;;;;;;11.70;9.33;;;9.40;99.90;;;;;;8326195;28;20275;-62
2023/10/27 16:50:32;;;;;;;13.53;10.33;;;9.30;99.90;;;;;;8332355;28;20308;-61
2023/10/27 16:54:35;;;;;;;15.37;11.60;;;9.30;99.90;;;;;;8332004;28;20205;-63
2023/10/27 16:58:38;;;;;;;14.83;11.33;;;9.30;99.90;;;;;;8328253;28;20191;-60
2023/10/27 17:02:42;;;;;;;21.23;15.33;;;9.30;99.90;;;;;;8325599;28;20223;-61
2023/10/27 17:06:43;;;;;;;20.93;16.37;;;9.30;99.90;;;;;;8327548;28;20211;-60
2023/10/27 17:10:44;;;;;;;20.37;15.37;;;9.30;99.90;;;;;;8332437;28;20494;-61
2023/10/27 17:14:48;;;;;;;16.10;13.87;;;9.30;99.90;;;;;;8329202;28;20307;-60
2023/10/27 17:18:49;;;;;;;16.13;12.87;;;9.30;99.90;;;;;;8325389;28;20180;-62
2023/10/27 17:22:50;;;;;;;17.10;13.17;;;9.30;99.90;;;;;;8327188;28;20214;-61
2023/10/27 17:26:51;;;;;;;27.20;21.03;;;9.30;99.90;;;;;;8326468;28;20173;-62
2023/10/27 17:30:52;;;;;;;23.63;19.83;;;9.40;99.90;;;;;;8341590;28;20190;-62
2023/10/27 17:34:55;;;;;;;23.17;19.20;;;9.40;99.90;;;;;;8328067;28;20210;-63
2023/10/27 17:38:57;;;;;;;21.57;17.83;;;9.40;99.90;;;;;;8330458;28;20232;-63
2023/10/27 17:42:58;;;;;;;19.73;16.60;;;9.40;99.90;;;;;;8334194;28;20209;-62
2023/10/27 17:46:59;;;;;;;24.33;19.83;;;9.40;99.90;;;;;;8332005;28;20183;-62
2023/10/27 17:51:04;;;;;;;25.50;20.50;;;9.40;99.90;;;;;;8336274;28;20668;-60
2023/10/27 17:55:06;;;;;;;24.67;20.77;;;9.40;99.90;;;;;;8334935;28;20285;-61
2023/10/27 17:59:09;;;;;;;25.40;19.30;;;9.40;99.90;;;;;;8331805;28;20209;-61
2023/10/27 18:03:09;;;;;;;26.97;21.47;;;9.40;99.90;;;;;;8335571;28;20266;-62
2023/10/27 18:07:12;;;;;;;27.23;19.40;;;9.40;99.90;;;;;;8332476;28;20192;-62
2023/10/27 18:11:17;;;;;;;27.70;19.90;;;9.40;99.90;;;;;;8336152;28;20313;-63
2023/10/27 18:15:18;;;;;;;30.37;22.47;;;9.40;99.90;;;;;;8338070;28;20277;-59
2023/10/27 18:19:19;;;;;;;31.37;23.37;;;9.40;99.90;;;;;;8332385;28;20185;-60
2023/10/27 18:23:20;;;;;;;33.67;25.53;;;9.40;99.90;;;;;;8336312;28;20380;-60
2023/10/27 18:27:21;;;;;;;25.97;21.70;;;9.50;99.90;;;;;;8331711;28;20206;-62
2023/10/27 18:31:22;;;;;;;29.07;20.87;;;9.50;99.90;;;;;;8335673;28;20187;-61
2023/10/27 18:35:23;;;;;;;26.03;19.10;;;9.50;99.90;;;;;;8330032;28;20312;-61
2023/10/27 18:39:24;;;;;;;29.50;21.60;;;9.50;99.90;;;;;;8332148;28;20182;-62
2023/10/27 18:43:25;;;;;;;26.77;19.23;;;9.50;99.90;;;;;;8330275;28;20270;-62
2023/10/27 18:47:27;;;;;;;20.03;15.63;;;9.40;99.90;;;;;;8331782;28;20182;-61
2023/10/27 18:51:28;;;;;;;16.83;13.00;;;9.40;99.90;;;;;;8332002;28;20191;-61
2023/10/27 18:55:29;;;;;;;16.10;12.83;;;9.40;99.90;;;;;;8332497;28;20203;-61
2023/10/27 18:59:30;;;;;;;13.30;11.53;;;9.40;99.90;;;;;;8326151;28;20689;-61
2023/10/27 19:03:38;;;;;;;14.30;10.70;;;9.50;99.90;;;;;;8330793;28;20175;-59
2023/10/27 19:07:40;;;;;;;12.23;9.93;;;9.40;99.90;;;;;;8348141;28;20266;-61
2023/10/27 19:11:40;;;;;;;11.70;9.40;;;9.40;99.90;;;;;;8329027;28;20297;-63
2023/10/27 19:15:44;;;;;;;10.77;8.47;;;9.50;99.90;;;;;;8328860;28;20265;-61
2023/10/27 19:19:45;;;;;;;10.70;8.53;;;9.50;99.90;;;;;;8329794;28;20204;-62
2023/10/27 19:23:58;;;;;;;12.53;8.67;;;9.50;99.90;;;;;;8332127;28;20233;-61
2023/10/27 19:28:01;;;;;;;12.20;9.37;;;9.50;99.90;;;;;;8325899;28;20179;-62
2023/10/27 19:32:01;;;;;;;11.93;9.23;;;9.40;99.90;;;;;;8335184;28;20183;-62
2023/10/27 19:36:03;;;;;;;9.40;8.27;;;9.40;99.90;;;;;;8346215;28;20198;-66
2023/10/27 19:40:06;;;;;;;11.57;8.93;;;9.40;99.90;;;;;;8330982;28;20321;-66
2023/10/27 19:44:07;;;;;;;8.60;7.57;;;9.40;99.90;;;;;;8326975;28;20183;-64
2023/10/27 19:48:09;;;;;;;9.67;8.27;;;9.40;99.90;;;;;;8326384;28;20510;-63
2023/10/27 19:52:12;;;;;;;9.37;7.53;;;9.40;99.90;;;;;;8324822;28;20214;-64
2023/10/27 19:56:15;;;;;;;12.40;8.50;;;9.40;99.90;;;;;;8327103;28;20264;-64
2023/10/27 20:00:19;;;;;;;11.73;8.50;;;9.40;99.90;;;;;;8327110;28;20210;-62
2023/10/27 20:04:20;;;;;;;12.40;8.00;;;9.40;99.90;;;;;;8346894;28;20231;-63
2023/10/27 20:08:21;;;;;;;10.73;8.23;;;9.40;99.90;;;;;;8327865;28;20423;-64
2023/10/27 20:12:22;;;;;;;9.03;7.33;;;9.30;99.90;;;;;;8329047;28;20182;-62
2023/10/27 20:16:23;;;;;;;11.60;8.23;;;9.30;99.90;;;;;;8327919;28;20195;-63
2023/10/27 20:20:26;;;;;;;11.30;8.90;;;9.30;99.90;;;;;;8326874;28;20201;-63
2023/10/27 20:24:27;;;;;;;13.13;9.53;;;9.20;99.90;;;;;;8325448;28;20182;-64
2023/10/27 20:28:27;;;;;;;14.37;10.00;;;9.20;99.90;;;;;;8320895;28;20247;-63
2023/10/27 20:32:28;;;;;;;14.00;10.87;;;9.10;99.90;;;;;;8327293;28;20185;-61
2023/10/27 20:36:30;;;;;;;15.43;11.13;;;9.10;99.90;;;;;;8327466;28;20221;-63
2023/10/27 20:40:31;;;;;;;15.83;11.30;;;9.10;99.90;;;;;;8329433;28;20209;-61
2023/10/27 20:44:33;;;;;;;16.30;11.30;;;9.10;99.90;;;;;;8329890;28;20598;-67